This is the latest recevied weather packets stored in our database for station/object KB3GVC-13. If no packets are shown the sender has not sent any weather packets the latest 10 day(s).
| Time | Temp. | Humidity | Pressure | Rain* | Wind** | Luminosity | Snow |
|---|---|---|---|---|---|---|---|
| 1777677899 | 14.44° C | 64% | 1012.7 hPa | 0 mm | - | - | - |
| 1777677596 | 14.44° C | 63% | 1012.6 hPa | 0 mm | - | - | - |
| 1777677295 | 15° C | 61% | 1012.4 hPa | 0 mm | - | - | - |
| 1777676993 | 15.56° C | 60% | 1012.4 hPa | 0 mm | - | - | - |
| 1777676691 | 15.56° C | 57% | 1012.5 hPa | 0 mm | - | - | - |
| 1777676388 | 16.11° C | 55% | 1012.3 hPa | 0 mm | - | - | - |
| 1777676086 | 17.22° C | 49% | 1012.4 hPa | 0 mm | - | - | - |
| 1777675782 | 17.78° C | 37% | 1012.3 hPa | 0 mm | - | - | - |
| 1777675479 | 17.78° C | 36% | 1012.2 hPa | 0 mm | - | - | - |
| 1777675176 | 17.78° C | 36% | 1012.3 hPa | 0 mm | - | - | - |
| 1777674872 | 17.78° C | 38% | 1012.2 hPa | 0 mm | - | - | - |
| 1777674568 | 17.78° C | 38% | 1012.3 hPa | 0 mm | - | - | - |
| 1777674267 | 17.78° C | 38% | 1012.1 hPa | 0 mm | - | - | - |
| 1777673962 | 17.78° C | 39% | 1012.4 hPa | 0 mm | - | - | - |
| 1777673659 | 18.33° C | 37% | 1012.3 hPa | 0 mm | - | - | - |
| 1777673357 | 17.78° C | 41% | 1012.6 hPa | 0 mm | - | - | - |
| 1777673054 | 18.33° C | 38% | 1012.5 hPa | 0 mm | - | - | - |
| 1777672750 | 18.33° C | 40% | 1012.4 hPa | 0 mm | - | - | - |
| 1777672447 | 18.33° C | 41% | 1012.5 hPa | 0 mm | - | - | - |
| 1777672143 | 18.33° C | 40% | 1012.2 hPa | 0 mm | - | - | - |
| 1777671843 | 18.33° C | 38% | 1012.3 hPa | 0 mm | - | - | - |
| 1777671539 | 18.33° C | 38% | 1012.6 hPa | 0 mm | - | - | - |
| 1777671236 | 18.33° C | 40% | 1012.3 hPa | 0 mm | - | - | - |
| 1777670931 | 18.33° C | 40% | 1012.3 hPa | 0 mm | - | - | - |
| 1777670629 | 17.78° C | 40% | 1012.6 hPa | 0 mm | - | - | - |
* Rain latest hour (hover to see other rain measurements)
** Current wind speed in m/s (hover to see current wind gust speed)